Time;durP1;ratioP1;P1;durP2;ratioP2;P2;SDS_P1;SDS_P2;PMS_P1;PMS_P2;Temp;Humidity;BMP_temperature;BMP_pressure;BME280_temperature;BME280_humidity;BME280_pressure;Samples;Min_cycle;Max_cycle;Signal;HPM_P1;HPM_P2
2023/04/14 00:00:24;;;;;;;4.37;2.00;;;5.50;99.90;;;;;;5052926;28;20385;-80
2023/04/14 00:02:50;;;;;;;4.60;2.03;;;5.60;99.90;;;;;;5039833;28;20472;-81
2023/04/14 00:05:15;;;;;;;2.97;1.80;;;5.50;99.90;;;;;;5065810;28;20397;-81
2023/04/14 00:07:41;;;;;;;5.90;2.10;;;5.50;99.90;;;;;;5068922;28;20423;-80
2023/04/14 00:10:07;;;;;;;4.10;2.47;;;5.40;99.90;;;;;;5075121;28;20395;-80
2023/04/14 00:12:32;;;;;;;3.67;2.13;;;5.20;99.90;;;;;;5066740;28;20388;-80
2023/04/14 00:14:58;;;;;;;4.00;1.70;;;5.30;99.90;;;;;;5066051;28;20389;-80
2023/04/14 00:17:23;;;;;;;4.60;2.57;;;5.30;99.90;;;;;;5080266;28;20386;-80
2023/04/14 00:19:49;;;;;;;3.73;2.00;;;5.20;99.90;;;;;;5077230;28;20406;-80
2023/04/14 00:22:15;;;;;;;3.75;2.08;;;5.20;99.90;;;;;;5080201;28;20406;-80
2023/04/14 00:24:42;;;;;;;6.45;2.45;;;5.30;99.90;;;;;;5071700;28;20387;-80
2023/04/14 00:27:11;;;;;;;2.85;1.80;;;5.20;99.90;;;;;;5070239;28;20934;-80
2023/04/14 00:29:38;;;;;;;4.35;1.90;;;5.20;99.90;;;;;;5053069;28;20464;-81
2023/04/14 00:32:04;;;;;;;4.60;1.95;;;5.20;99.90;;;;;;5052415;28;20406;-80
2023/04/14 00:34:30;;;;;;;3.20;2.60;;;5.20;99.90;;;;;;5071202;28;20375;-80
2023/04/14 00:36:55;;;;;;;4.53;2.10;;;5.10;99.90;;;;;;5065645;28;20377;-81
2023/04/14 00:39:21;;;;;;;6.00;2.50;;;5.20;99.90;;;;;;5046549;28;20380;-81
2023/04/14 00:41:47;;;;;;;5.63;2.08;;;5.10;99.90;;;;;;5042119;28;20791;-81
2023/04/14 00:44:13;;;;;;;2.93;2.30;;;5.00;99.90;;;;;;5069899;28;20380;-80
2023/04/14 00:46:40;;;;;;;4.93;1.80;;;5.00;99.90;;;;;;5057866;28;20387;-81
2023/04/14 00:49:06;;;;;;;4.25;2.13;;;4.90;99.90;;;;;;5066110;28;20840;-81
2023/04/14 00:51:33;;;;;;;3.10;1.70;;;4.90;99.90;;;;;;5065803;28;20916;-81
2023/04/14 00:54:01;;;;;;;2.92;1.50;;;4.90;99.90;;;;;;5058651;28;20408;-81
2023/04/14 00:56:28;;;;;;;6.68;1.67;;;4.70;99.90;;;;;;5052185;28;20424;-81
2023/04/14 00:58:54;;;;;;;4.60;1.90;;;4.80;99.90;;;;;;5041690;28;20899;-81
2023/04/14 01:01:21;;;;;;;2.77;1.90;;;4.80;99.90;;;;;;5062821;28;20414;-81
2023/04/14 01:03:47;;;;;;;5.05;2.50;;;4.70;99.90;;;;;;5067654;28;20387;-81
2023/04/14 01:06:12;;;;;;;5.63;1.70;;;4.60;99.90;;;;;;5038235;28;20473;-81
2023/04/14 01:08:38;;;;;;;3.63;2.03;;;4.60;99.90;;;;;;5042443;28;20493;-81
2023/04/14 01:11:07;;;;;;;3.20;1.75;;;4.60;99.90;;;;;;5064575;28;20402;-81
2023/04/14 01:14:00;;;;;;;3.20;2.10;;;4.50;99.90;;;;;;5064757;28;20470;-80
2023/04/14 01:16:30;;;;;;;4.47;2.00;;;4.50;99.90;;;;;;5054169;28;20455;-80
2023/04/14 01:19:20;;;;;;;2.60;1.70;;;4.50;99.90;;;;;;5072700;28;20388;-81
2023/04/14 01:21:49;;;;;;;4.53;2.00;;;4.50;99.90;;;;;;5072462;28;20433;-81
2023/04/14 01:24:53;;;;;;;2.80;1.90;;;4.50;99.90;;;;;;5072566;28;20866;-81
2023/04/14 01:27:30;;;;;;;3.65;1.75;;;4.40;99.90;;;;;;4962139;28;20405;-80
2023/04/14 01:30:38;;;;;;;4.05;2.20;;;4.40;99.90;;;;;;5052470;28;20409;-81
2023/04/14 01:33:06;;;;;;;5.20;2.78;;;4.30;99.90;;;;;;5052478;28;20380;-81
2023/04/14 01:35:54;;;;;;;3.45;1.90;;;4.30;99.90;;;;;;5052379;28;20396;-81
2023/04/14 01:38:27;;;;;;;6.55;2.97;;;4.20;99.90;;;;;;5035055;28;20487;-81
2023/04/14 01:40:56;;;;;;;3.60;2.00;;;4.20;99.90;;;;;;5041972;28;20404;-81
2023/04/14 01:43:26;;;;;;;4.72;2.15;;;4.30;99.90;;;;;;5068613;28;20393;-81
2023/04/14 01:45:55;;;;;;;2.78;1.80;;;4.20;99.90;;;;;;5052409;28;20394;-81
2023/04/14 01:48:23;;;;;;;5.38;2.10;;;4.10;99.90;;;;;;5052201;28;20373;-81
2023/04/14 01:50:49;;;;;;;4.22;2.03;;;4.20;99.90;;;;;;5061567;28;20457;-81
2023/04/14 01:53:18;;;;;;;3.60;2.00;;;4.00;99.90;;;;;;5063393;28;20400;-81
2023/04/14 01:55:46;;;;;;;2.70;2.08;;;4.00;99.90;;;;;;5071881;28;20387;-81
2023/04/14 01:58:14;;;;;;;3.92;2.50;;;3.90;99.90;;;;;;5071857;28;20506;-81
2023/04/14 02:00:41;;;;;;;4.75;2.30;;;4.00;99.90;;;;;;5071950;28;20384;-81
2023/04/14 02:03:08;;;;;;;3.97;2.15;;;4.20;99.90;;;;;;5062961;28;20466;-80
2023/04/14 02:05:38;;;;;;;7.60;2.25;;;4.20;99.90;;;;;;5085139;28;20388;-80
2023/04/14 02:08:09;;;;;;;6.20;2.45;;;4.10;99.90;;;;;;5073857;28;20907;-81
2023/04/14 02:10:38;;;;;;;3.33;2.20;;;4.10;99.90;;;;;;5054952;28;20860;-80
2023/04/14 02:13:05;;;;;;;3.80;2.30;;;4.10;99.90;;;;;;5054971;28;20375;-81
2023/04/14 02:15:32;;;;;;;5.07;2.17;;;4.00;99.90;;;;;;5045684;28;20449;-81
2023/04/14 02:17:59;;;;;;;3.90;2.33;;;4.00;99.90;;;;;;5073189;28;20376;-81
2023/04/14 02:20:26;;;;;;;4.38;2.40;;;3.90;99.90;;;;;;5072402;28;20474;-81
2023/04/14 02:22:52;;;;;;;4.78;2.15;;;3.90;99.90;;;;;;5096813;22;20482;-80
2023/04/14 02:25:21;;;;;;;5.22;2.47;;;3.80;99.90;;;;;;5091468;28;20405;-81
2023/04/14 02:27:59;;;;;;;2.80;2.17;;;3.90;99.90;;;;;;5099268;28;20818;-81
2023/04/14 02:30:43;;;;;;;3.95;1.90;;;3.80;99.90;;;;;;5081505;28;20863;-79
2023/04/14 02:33:11;;;;;;;2.92;1.60;;;3.80;99.90;;;;;;5081243;28;20885;-82
2023/04/14 02:36:23;;;;;;;5.13;2.17;;;3.90;99.90;;;;;;5085512;28;20400;-81
2023/04/14 02:38:56;;;;;;;7.03;2.70;;;4.00;99.90;;;;;;5036812;28;20399;-83
2023/04/14 02:41:25;;;;;;;3.00;2.10;;;3.90;99.90;;;;;;5080793;28;20388;-81
2023/04/14 02:44:16;;;;;;;7.10;2.40;;;3.80;99.90;;;;;;5081981;28;20391;-81
2023/04/14 02:46:50;;;;;;;3.92;2.40;;;3.80;99.90;;;;;;5085126;28;20426;-79
2023/04/14 02:49:17;;;;;;;5.20;2.00;;;3.60;99.90;;;;;;5089361;28;20403;-79
2023/04/14 02:51:45;;;;;;;4.60;1.77;;;3.80;99.90;;;;;;5085137;28;20401;-80
2023/04/14 02:54:12;;;;;;;4.00;2.08;;;3.70;99.90;;;;;;5074487;28;20403;-80
2023/04/14 02:56:39;;;;;;;4.03;2.20;;;3.70;99.90;;;;;;5078212;28;20380;-82
2023/04/14 02:59:06;;;;;;;4.28;2.20;;;3.70;99.90;;;;;;5072533;28;20389;-82
2023/04/14 03:01:32;;;;;;;4.10;1.93;;;3.60;99.90;;;;;;5071168;28;20380;-82
2023/04/14 03:03:59;;;;;;;4.17;2.00;;;3.70;99.90;;;;;;5069877;28;20390;-82
2023/04/14 03:06:26;;;;;;;5.72;2.38;;;3.50;99.90;;;;;;5069403;28;20452;-82
2023/04/14 03:08:53;;;;;;;3.97;2.15;;;3.60;99.90;;;;;;5073388;28;20383;-81
2023/04/14 03:11:20;;;;;;;3.53;1.80;;;3.60;99.90;;;;;;5072549;28;20427;-82
2023/04/14 03:13:47;;;;;;;3.85;1.80;;;3.60;99.90;;;;;;5076943;28;20399;-82
2023/04/14 03:16:14;;;;;;;3.78;2.00;;;3.50;99.90;;;;;;5082996;28;20392;-82
2023/04/14 03:18:41;;;;;;;3.25;2.00;;;3.50;99.90;;;;;;5080007;28;20757;-82
2023/04/14 03:21:06;;;;;;;2.80;1.85;;;3.50;99.90;;;;;;5081193;28;20470;-82
2023/04/14 03:23:33;;;;;;;5.43;2.22;;;3.60;99.90;;;;;;5079580;28;20399;-80
2023/04/14 03:26:00;;;;;;;3.80;1.77;;;3.60;99.90;;;;;;5081552;28;20441;-82
2023/04/14 03:28:29;;;;;;;5.68;1.95;;;3.60;99.90;;;;;;5080756;28;20380;-82
2023/04/14 03:30:56;;;;;;;4.15;1.60;;;3.50;99.90;;;;;;5079464;28;20404;-82
2023/04/14 03:33:26;;;;;;;4.60;2.35;;;3.40;99.90;;;;;;5079592;28;20788;-82
2023/04/14 03:35:54;;;;;;;3.30;1.77;;;3.30;99.90;;;;;;5082341;28;20418;-80
2023/04/14 03:38:20;;;;;;;6.00;2.08;;;3.30;99.90;;;;;;5081702;28;20380;-82
2023/04/14 03:40:46;;;;;;;5.57;1.73;;;3.30;99.90;;;;;;5080086;28;20383;-82
2023/04/14 03:43:18;;;;;;;5.43;2.30;;;3.30;99.90;;;;;;5081193;28;20390;-81
2023/04/14 03:45:46;;;;;;;6.22;1.80;;;3.30;99.90;;;;;;5083028;28;20881;-82
2023/04/14 03:48:13;;;;;;;3.33;2.03;;;3.30;99.90;;;;;;5079217;28;20390;-82
2023/04/14 03:50:41;;;;;;;4.32;2.20;;;3.20;99.90;;;;;;5080852;28;20410;-82
2023/04/14 03:53:11;;;;;;;3.95;1.77;;;3.20;99.90;;;;;;5081931;28;20387;-82
2023/04/14 03:55:38;;;;;;;4.50;1.85;;;3.20;99.90;;;;;;5082028;28;20384;-81
2023/04/14 03:58:07;;;;;;;6.30;2.10;;;3.20;99.90;;;;;;5080273;28;20449;-82
2023/04/14 04:00:33;;;;;;;6.13;1.90;;;3.20;99.90;;;;;;5080278;28;20394;-82
2023/04/14 04:03:00;;;;;;;3.30;2.20;;;3.20;99.90;;;;;;5080644;28;20423;-81
2023/04/14 04:05:26;;;;;;;5.00;2.10;;;3.00;99.90;;;;;;5080125;28;20375;-82
2023/04/14 04:07:54;;;;;;;3.88;2.10;;;2.90;99.90;;;;;;5081121;28;20936;-82
2023/04/14 04:10:20;;;;;;;5.13;1.90;;;2.90;99.90;;;;;;5081157;28;20768;-82
2023/04/14 04:12:47;;;;;;;3.45;1.60;;;2.90;99.90;;;;;;5080348;28;20418;-82
2023/04/14 04:15:13;;;;;;;5.70;2.35;;;3.00;99.90;;;;;;5078756;28;20391;-81
2023/04/14 04:17:40;;;;;;;3.47;2.27;;;3.00;99.90;;;;;;5079738;28;20445;-81
2023/04/14 04:20:10;;;;;;;7.43;2.40;;;3.00;99.90;;;;;;5080732;28;20387;-82
2023/04/14 04:22:38;;;;;;;3.42;2.08;;;3.00;99.90;;;;;;5079184;28;20486;-82
2023/04/14 04:25:05;;;;;;;4.82;2.20;;;2.90;99.90;;;;;;5079339;28;20948;-82
2023/04/14 04:27:31;;;;;;;5.50;2.60;;;3.10;99.90;;;;;;5071300;28;20402;-82
2023/04/14 04:29:57;;;;;;;6.38;2.20;;;2.90;99.90;;;;;;5077641;28;20929;-82
2023/04/14 04:32:23;;;;;;;6.68;2.70;;;2.90;99.90;;;;;;5077032;28;20389;-81
2023/04/14 04:34:49;;;;;;;4.63;2.20;;;2.90;99.90;;;;;;5072027;28;20889;-82
2023/04/14 04:37:17;;;;;;;5.97;1.80;;;2.90;99.90;;;;;;5078121;28;20388;-82
2023/04/14 04:39:43;;;;;;;4.68;2.20;;;3.00;99.90;;;;;;5079831;28;20451;-82
2023/04/14 04:42:08;;;;;;;5.20;2.03;;;2.90;99.90;;;;;;5080517;28;20424;-81
2023/04/14 04:44:34;;;;;;;3.60;2.43;;;2.90;99.90;;;;;;5080416;28;20483;-82
2023/04/14 04:47:00;;;;;;;4.63;2.15;;;3.00;99.90;;;;;;5079270;28;20687;-81
2023/04/14 04:49:26;;;;;;;4.53;2.60;;;3.00;99.90;;;;;;5080308;28;20387;-81
2023/04/14 04:51:52;;;;;;;6.95;2.42;;;3.10;99.90;;;;;;5080736;28;20444;-80
2023/04/14 04:54:18;;;;;;;5.67;2.53;;;3.20;99.90;;;;;;5079452;28;20586;-82
2023/04/14 04:56:45;;;;;;;5.10;2.60;;;3.30;99.90;;;;;;5079396;28;20380;-80
2023/04/14 04:59:10;;;;;;;5.45;2.40;;;3.40;99.90;;;;;;5078690;28;20390;-81
2023/04/14 05:01:36;;;;;;;4.80;2.13;;;3.30;99.90;;;;;;5080384;28;20840;-82
2023/04/14 05:04:01;;;;;;;6.20;3.10;;;3.20;99.90;;;;;;5079338;28;20811;-82
2023/04/14 05:06:27;;;;;;;6.87;3.03;;;3.40;99.90;;;;;;5079488;28;20751;-81
2023/04/14 05:08:54;;;;;;;5.63;2.30;;;3.30;99.90;;;;;;5083217;28;20414;-82
2023/04/14 05:11:19;;;;;;;5.88;2.90;;;3.30;99.90;;;;;;5084864;28;20496;-80
2023/04/14 05:13:45;;;;;;;6.50;3.27;;;3.40;99.90;;;;;;5096198;28;20382;-80
2023/04/14 05:16:14;;;;;;;4.40;2.50;;;3.30;99.90;;;;;;5099783;28;20454;-79
2023/04/14 05:18:40;;;;;;;4.15;2.60;;;3.30;99.90;;;;;;5109075;28;20471;-80
2023/04/14 05:21:09;;;;;;;4.18;2.45;;;3.30;99.90;;;;;;5108628;28;20378;-80
2023/04/14 05:23:36;;;;;;;4.30;2.20;;;3.30;99.90;;;;;;5107371;28;20410;-80
2023/04/14 05:26:03;;;;;;;4.05;2.22;;;3.30;99.90;;;;;;5108182;28;20404;-80
2023/04/14 05:28:29;;;;;;;5.20;2.40;;;3.40;99.90;;;;;;5106981;28;20385;-79
2023/04/14 05:30:55;;;;;;;4.25;2.10;;;3.50;99.90;;;;;;5107920;28;20461;-79
2023/04/14 05:33:21;;;;;;;5.13;2.40;;;3.60;99.90;;;;;;5107790;28;20374;-80
2023/04/14 05:35:49;;;;;;;5.10;2.40;;;3.50;99.90;;;;;;5102886;28;20381;-81
2023/04/14 05:38:15;;;;;;;3.60;2.22;;;3.50;99.90;;;;;;5097146;28;20393;-81
2023/04/14 05:40:41;;;;;;;4.90;2.53;;;3.50;99.90;;;;;;5094057;28;20413;-81
2023/04/14 05:43:07;;;;;;;3.65;2.95;;;3.60;99.90;;;;;;5096311;28;20412;-81
2023/04/14 05:45:32;;;;;;;8.17;2.60;;;3.60;99.90;;;;;;5098638;28;20420;-80
2023/04/14 05:47:58;;;;;;;5.20;2.40;;;3.70;99.90;;;;;;5107761;28;20416;-78
2023/04/14 05:50:24;;;;;;;5.97;2.43;;;3.80;99.90;;;;;;5086037;28;20416;-80
2023/04/14 05:52:50;;;;;;;4.20;2.43;;;3.80;99.90;;;;;;5078664;28;20383;-81
2023/04/14 05:55:16;;;;;;;5.38;3.30;;;3.90;99.90;;;;;;5076955;28;20761;-80
2023/04/14 05:57:42;;;;;;;6.15;2.50;;;4.10;99.90;;;;;;5077739;28;20419;-81
2023/04/14 06:00:09;;;;;;;6.70;2.57;;;4.10;99.90;;;;;;5084066;28;20391;-79
2023/04/14 06:02:35;;;;;;;5.78;2.40;;;4.20;99.90;;;;;;5091052;28;20411;-78
2023/04/14 06:05:01;;;;;;;5.25;2.55;;;4.00;99.90;;;;;;5090631;28;20387;-79
2023/04/14 06:07:27;;;;;;;5.40;2.90;;;4.10;99.90;;;;;;5088824;28;20415;-79
2023/04/14 06:09:53;;;;;;;4.28;2.50;;;4.30;99.90;;;;;;5086755;28;20408;-80
2023/04/14 06:12:19;;;;;;;5.60;2.40;;;4.30;99.90;;;;;;5078752;28;20880;-81
2023/04/14 06:14:45;;;;;;;6.10;3.30;;;4.40;99.90;;;;;;5079460;28;20493;-81
2023/04/14 06:17:10;;;;;;;5.20;3.10;;;4.50;99.90;;;;;;5080373;28;20371;-80
2023/04/14 06:19:36;;;;;;;4.50;2.50;;;4.60;99.90;;;;;;5080354;28;20868;-82
2023/04/14 06:22:01;;;;;;;4.10;2.20;;;4.70;99.90;;;;;;5078942;28;20455;-81
2023/04/14 06:24:27;;;;;;;7.47;2.37;;;4.70;99.90;;;;;;5079954;28;20426;-81
2023/04/14 06:26:52;;;;;;;3.83;1.67;;;4.60;99.90;;;;;;5077370;28;20443;-82
2023/04/14 06:29:18;;;;;;;5.40;2.30;;;4.70;99.90;;;;;;5084291;28;20386;-82
2023/04/14 06:31:43;;;;;;;2.70;2.00;;;4.70;99.90;;;;;;5089152;28;20519;-82
2023/04/14 06:34:09;;;;;;;4.07;2.45;;;4.80;99.90;;;;;;5089826;28;20749;-81
2023/04/14 06:36:35;;;;;;;4.73;2.80;;;5.00;99.90;;;;;;5098140;28;20458;-81
2023/04/14 06:39:00;;;;;;;3.67;2.20;;;5.10;99.90;;;;;;5100855;28;20374;-82
2023/04/14 06:41:26;;;;;;;5.27;2.70;;;5.30;99.90;;;;;;5101944;28;20381;-82
2023/04/14 06:43:51;;;;;;;6.97;3.10;;;5.30;99.90;;;;;;5092992;28;20401;-82
2023/04/14 06:46:17;;;;;;;4.90;2.30;;;5.40;99.90;;;;;;5092769;28;20752;-81
2023/04/14 06:48:43;;;;;;;5.95;2.63;;;5.50;99.90;;;;;;5101577;28;20385;-82
2023/04/14 06:51:11;;;;;;;4.50;3.30;;;5.50;99.90;;;;;;5091389;28;20410;-82
2023/04/14 06:53:37;;;;;;;5.73;2.87;;;5.60;99.90;;;;;;5104335;28;20393;-82
2023/04/14 06:56:04;;;;;;;4.13;2.10;;;5.90;99.90;;;;;;5101383;28;20466;-82
2023/04/14 06:58:30;;;;;;;6.03;2.53;;;5.90;99.90;;;;;;5102265;28;20378;-82
2023/04/14 07:00:57;;;;;;;6.97;2.63;;;6.00;99.90;;;;;;5102949;28;20477;-81
2023/04/14 07:03:23;;;;;;;5.85;2.40;;;6.10;99.90;;;;;;5102330;28;20386;-82
2023/04/14 07:05:49;;;;;;;4.25;2.47;;;6.30;99.90;;;;;;5102049;28;20405;-82
2023/04/14 07:08:15;;;;;;;6.05;2.35;;;6.30;99.90;;;;;;5103013;28;20386;-81
2023/04/14 07:10:41;;;;;;;5.47;2.50;;;6.30;99.90;;;;;;5103423;28;20405;-83
2023/04/14 07:13:06;;;;;;;5.77;2.40;;;6.50;99.90;;;;;;5103520;28;20450;-82
2023/04/14 07:15:32;;;;;;;5.40;2.10;;;6.50;99.90;;;;;;5090932;28;20459;-81
2023/04/14 07:17:57;;;;;;;4.23;2.20;;;6.70;99.90;;;;;;5097058;28;20748;-82
2023/04/14 07:20:23;;;;;;;5.00;2.10;;;6.70;99.90;;;;;;5100908;28;20466;-81
2023/04/14 07:22:49;;;;;;;4.07;2.00;;;6.80;99.90;;;;;;5099788;28;20402;-81
2023/04/14 07:25:15;;;;;;;6.77;1.97;;;6.90;99.90;;;;;;5099942;28;20404;-80
2023/04/14 07:27:40;;;;;;;3.90;2.03;;;7.00;99.90;;;;;;5098692;28;20382;-80
2023/04/14 07:30:06;;;;;;;4.80;2.87;;;7.00;99.90;;;;;;5099797;28;20741;-83
2023/04/14 07:32:32;;;;;;;8.35;2.80;;;7.10;99.90;;;;;;5099440;28;20374;-82
2023/04/14 07:34:58;;;;;;;4.10;1.60;;;7.20;99.90;;;;;;5099356;28;20386;-82
2023/04/14 07:37:24;;;;;;;5.07;1.95;;;7.30;99.90;;;;;;5099484;28;20382;-82
2023/04/14 07:39:50;;;;;;;5.70;1.70;;;7.30;99.90;;;;;;5099814;28;20374;-80
2023/04/14 07:42:15;;;;;;;6.20;2.10;;;7.40;99.90;;;;;;5099417;28;20381;-81
2023/04/14 07:44:41;;;;;;;3.57;1.87;;;7.60;99.90;;;;;;5100318;28;20420;-82
2023/04/14 07:47:06;;;;;;;4.60;1.57;;;7.80;99.90;;;;;;5097990;28;20382;-81
2023/04/14 07:49:32;;;;;;;6.20;2.10;;;7.80;99.90;;;;;;5102254;28;20481;-83
2023/04/14 07:51:58;;;;;;;4.57;1.97;;;7.90;99.90;;;;;;5094153;28;20393;-83
2023/04/14 07:54:24;;;;;;;3.13;1.60;;;8.10;99.90;;;;;;5091687;28;20386;-82
2023/04/14 07:56:50;;;;;;;2.95;1.60;;;8.20;99.90;;;;;;5099565;28;20766;-82
2023/04/14 07:59:15;;;;;;;5.40;2.05;;;8.30;99.90;;;;;;5098328;28;20382;-81
2023/04/14 08:01:41;;;;;;;5.53;2.00;;;8.30;97.70;;;;;;5099092;28;20390;-80
2023/04/14 08:04:07;;;;;;;2.70;1.53;;;8.40;98.70;;;;;;5071355;28;20385;-80
2023/04/14 08:06:32;;;;;;;6.00;1.55;;;8.30;93.20;;;;;;5057794;28;20398;-81
2023/04/14 08:08:58;;;;;;;7.60;2.10;;;8.30;95.90;;;;;;5058692;28;20381;-81
2023/04/14 08:11:23;;;;;;;4.33;2.13;;;8.40;97.20;;;;;;5057537;28;20397;-80
2023/04/14 08:13:51;;;;;;;3.50;1.60;;;8.70;92.00;;;;;;5058985;28;20922;-82
2023/04/14 08:16:17;;;;;;;5.80;1.80;;;8.70;89.30;;;;;;5059178;28;20389;-81
2023/04/14 08:18:42;;;;;;;4.50;1.70;;;8.70;85.40;;;;;;5058024;28;20383;-81
2023/04/14 08:21:08;;;;;;;2.93;1.70;;;8.90;87.60;;;;;;5057186;28;20393;-81
2023/04/14 08:23:33;;;;;;;3.77;1.70;;;9.10;85.30;;;;;;5082300;22;20493;-81
2023/04/14 08:25:59;;;;;;;2.87;1.30;;;9.00;86.90;;;;;;5074346;28;20866;-81
2023/04/14 08:28:26;;;;;;;7.35;1.80;;;8.90;88.90;;;;;;5076000;28;20742;-81
2023/04/14 08:30:51;;;;;;;4.15;1.92;;;8.80;91.20;;;;;;5075220;28;20436;-79
2023/04/14 08:33:17;;;;;;;4.03;1.73;;;9.10;97.80;;;;;;5046699;28;20486;-80
2023/04/14 08:35:42;;;;;;;4.03;1.70;;;9.40;81.60;;;;;;5057010;28;20393;-80
2023/04/14 08:38:08;;;;;;;3.63;1.57;;;9.50;70.80;;;;;;5037948;28;20955;-80
2023/04/14 08:40:39;;;;;;;2.83;1.52;;;9.60;69.30;;;;;;5050617;28;20418;-80
2023/04/14 08:43:05;;;;;;;2.17;1.40;;;9.70;65.50;;;;;;5053050;28;20468;-79
2023/04/14 08:45:32;;;;;;;3.22;1.42;;;9.70;70.00;;;;;;5046259;28;20389;-80
2023/04/14 08:47:58;;;;;;;5.30;1.80;;;9.80;62.00;;;;;;5055203;28;20389;-80
2023/04/14 08:50:29;;;;;;;3.70;1.70;;;9.80;58.90;;;;;;5058327;28;20401;-80
2023/04/14 08:52:58;;;;;;;3.95;1.58;;;9.80;61.40;;;;;;5055157;28;20791;-80
2023/04/14 08:55:24;;;;;;;3.78;1.80;;;9.80;60.00;;;;;;5038154;28;20384;-80
2023/04/14 08:57:51;;;;;;;3.40;1.40;;;10.00;65.40;;;;;;5050266;28;20938;-80
2023/04/14 09:00:18;;;;;;;4.85;1.60;;;10.20;57.40;;;;;;5045565;28;20384;-80
2023/04/14 09:02:44;;;;;;;3.45;1.50;;;10.30;55.20;;;;;;5061320;28;20443;-80
2023/04/14 09:05:11;;;;;;;4.20;1.70;;;10.20;54.00;;;;;;5054525;28;20763;-79
2023/04/14 09:07:37;;;;;;;6.47;1.70;;;10.10;54.40;;;;;;5025479;28;20423;-80
2023/04/14 09:10:03;;;;;;;2.58;1.80;;;10.20;55.70;;;;;;5024785;28;20439;-80
2023/04/14 09:12:29;;;;;;;5.35;1.73;;;10.30;54.60;;;;;;5044780;28;20382;-80
2023/04/14 09:14:57;;;;;;;4.30;1.43;;;10.40;53.50;;;;;;5024521;28;21038;-80
2023/04/14 09:17:25;;;;;;;3.38;1.70;;;10.10;51.50;;;;;;5026748;28;20373;-80
2023/04/14 09:19:51;;;;;;;4.82;1.58;;;10.20;58.40;;;;;;5025332;28;20387;-80
2023/04/14 09:22:17;;;;;;;4.88;2.00;;;10.20;57.70;;;;;;5045962;28;20486;-81
2023/04/14 09:24:43;;;;;;;3.47;2.10;;;10.20;62.40;;;;;;5052112;28;20405;-81
2023/04/14 09:27:09;;;;;;;2.63;1.40;;;10.30;60.10;;;;;;5066964;28;20497;-80
2023/04/14 09:29:36;;;;;;;2.83;1.55;;;10.20;57.50;;;;;;5053550;28;20389;-81
2023/04/14 09:32:03;;;;;;;3.90;1.77;;;10.30;57.70;;;;;;5037210;28;20399;-81
2023/04/14 09:34:29;;;;;;;2.40;1.30;;;10.30;54.80;;;;;;5034373;28;20395;-81
2023/04/14 09:37:02;;;;;;;3.17;1.38;;;10.10;51.00;;;;;;5033079;28;20788;-81
2023/04/14 09:39:27;;;;;;;4.53;1.67;;;10.20;54.60;;;;;;5033580;28;20379;-80
2023/04/14 09:41:53;;;;;;;3.75;1.80;;;10.30;56.90;;;;;;5033301;28;20383;-81
2023/04/14 09:44:19;;;;;;;4.82;1.50;;;10.20;55.40;;;;;;5034118;28;20395;-81
2023/04/14 09:46:57;;;;;;;2.75;1.60;;;10.40;57.10;;;;;;5032749;28;20383;-80
2023/04/14 09:49:23;;;;;;;2.88;1.50;;;10.40;53.40;;;;;;5039614;28;20383;-81
2023/04/14 09:51:51;;;;;;;1.90;1.30;;;10.60;54.00;;;;;;5034624;28;20402;-81
2023/04/14 09:54:26;;;;;;;3.08;1.50;;;10.80;48.40;;;;;;5015669;28;20387;-81
2023/04/14 09:56:53;;;;;;;4.13;1.60;;;10.80;47.50;;;;;;5015601;28;20383;-81
2023/04/14 09:59:32;;;;;;;3.60;1.48;;;10.90;55.00;;;;;;5033647;28;20387;-80
2023/04/14 10:02:00;;;;;;;3.22;1.60;;;10.90;44.90;;;;;;5016494;28;20391;-82
2023/04/14 10:04:27;;;;;;;3.97;1.70;;;10.90;40.80;;;;;;5015225;28;20387;-82
2023/04/14 10:06:56;;;;;;;3.80;1.33;;;11.10;44.50;;;;;;5015112;28;20390;-82
2023/04/14 10:09:23;;;;;;;4.40;1.58;;;11.20;42.10;;;;;;5037533;28;20403;-81
2023/04/14 10:12:12;;;;;;;2.40;1.30;;;11.40;35.60;;;;;;5035028;28;20473;-82
2023/04/14 10:14:39;;;;;;;3.33;1.40;;;11.50;29.60;;;;;;5035521;28;20394;-82
2023/04/14 10:17:06;;;;;;;4.60;1.88;;;11.20;28.90;;;;;;5018493;28;20398;-81
2023/04/14 10:19:32;;;;;;;4.50;1.40;;;11.20;30.20;;;;;;5019070;28;20441;-82
2023/04/14 10:21:58;;;;;;;3.58;1.67;;;11.40;29.60;;;;;;5037300;28;20456;-81
2023/04/14 10:24:24;;;;;;;5.10;1.43;;;11.70;30.00;;;;;;4979073;28;1742848;-80
2023/04/14 10:26:50;;;;;;;3.80;1.40;;;11.60;27.90;;;;;;5046987;28;20488;-81
2023/04/14 10:29:16;;;;;;;4.50;1.60;;;11.70;22.60;;;;;;5056182;28;20386;-81
2023/04/14 10:31:49;;;;;;;4.07;1.33;;;11.50;23.20;;;;;;5048072;28;20414;-80
2023/04/14 10:34:16;;;;;;;3.17;1.42;;;11.60;23.50;;;;;;5047656;28;20394;-80
2023/04/14 10:36:42;;;;;;;5.13;1.40;;;11.70;25.10;;;;;;5042415;28;20475;-81
2023/04/14 10:39:10;;;;;;;3.38;1.50;;;12.20;19.20;;;;;;5035780;28;20375;-80
2023/04/14 10:41:46;;;;;;;2.80;1.50;;;12.10;18.70;;;;;;5031565;28;20825;-82
2023/04/14 10:44:30;;;;;;;4.93;1.42;;;12.20;20.00;;;;;;5034460;28;20391;-81
2023/04/14 10:46:57;;;;;;;2.42;1.10;;;12.20;19.80;;;;;;5015754;28;20401;-84
2023/04/14 10:49:35;;;;;;;2.53;1.58;;;12.20;17.20;;;;;;4987066;28;20410;-82
2023/04/14 10:52:03;;;;;;;3.45;1.40;;;11.90;17.20;;;;;;4986923;28;20886;-82
2023/04/14 10:54:51;;;;;;;2.78;1.02;;;11.70;15.60;;;;;;4992052;28;20465;-82
2023/04/14 10:57:17;;;;;;;3.10;1.20;;;11.60;15.90;;;;;;4990195;28;20492;-82
2023/04/14 10:59:46;;;;;;;5.82;1.70;;;12.00;15.50;;;;;;4989992;28;20942;-82
2023/04/14 11:02:26;;;;;;;3.33;1.40;;;12.00;14.40;;;;;;4991930;28;20390;-82
2023/04/14 11:05:10;;;;;;;3.15;1.23;;;12.40;14.60;;;;;;4989528;28;20417;-82
2023/04/14 11:07:57;;;;;;;2.13;1.10;;;12.50;11.90;;;;;;4988297;28;20460;-82
2023/04/14 11:10:23;;;;;;;3.97;1.10;;;12.40;11.30;;;;;;4996999;28;20437;-81
2023/04/14 11:12:55;;;;;;;2.47;1.13;;;12.30;12.70;;;;;;4998600;28;20741;-83
2023/04/14 11:15:21;;;;;;;3.70;1.10;;;12.20;9.50;;;;;;4984525;28;20403;-83
2023/04/14 11:17:47;;;;;;;3.78;1.05;;;12.10;8.80;;;;;;4980014;28;20762;-83
2023/04/14 11:20:19;;;;;;;3.70;1.10;;;11.90;7.00;;;;;;4978769;28;20884;-83
2023/04/14 11:22:48;;;;;;;2.40;1.30;;;12.10;7.20;;;;;;4978520;28;20476;-82
2023/04/14 11:25:15;;;;;;;2.40;0.90;;;12.30;4.70;;;;;;4990593;28;20489;-82
2023/04/14 11:27:42;;;;;;;2.30;1.08;;;12.50;5.70;;;;;;4997558;28;20391;-83
2023/04/14 11:30:15;;;;;;;2.63;1.20;;;12.70;5.80;;;;;;4997578;28;20410;-83
2023/04/14 11:32:51;;;;;;;2.50;1.23;;;12.90;5.20;;;;;;4998499;28;20418;-82
2023/04/14 11:35:17;;;;;;;4.63;1.17;;;12.50;4.00;;;;;;4998090;28;20400;-82
2023/04/14 11:37:44;;;;;;;2.97;1.00;;;12.90;3.80;;;;;;4989069;28;20398;-81
2023/04/14 11:40:11;;;;;;;3.65;1.17;;;13.20;4.20;;;;;;4996977;28;20395;-82
2023/04/14 11:42:37;;;;;;;2.88;1.00;;;13.50;1.10;;;;;;4997402;28;20394;-82
2023/04/14 11:45:04;;;;;;;4.20;1.30;;;13.60;1.00;;;;;;4988499;28;20395;-81
2023/04/14 11:47:30;;;;;;;3.38;1.00;;;13.50;1.00;;;;;;4998470;28;20403;-81
2023/04/14 11:49:56;;;;;;;2.90;1.10;;;13.20;1.00;;;;;;5002046;28;20405;-81
2023/04/14 11:52:21;;;;;;;2.88;1.00;;;13.00;1.00;;;;;;5002380;28;20383;-81
2023/04/14 11:54:47;;;;;;;3.05;1.30;;;12.60;1.00;;;;;;4995606;28;20422;-81
2023/04/14 11:57:16;;;;;;;2.53;1.05;;;12.80;1.00;;;;;;4996160;28;20461;-81
2023/04/14 11:59:43;;;;;;;2.55;0.93;;;13.60;1.00;;;;;;4987142;28;20394;-81
2023/04/14 12:02:18;;;;;;;2.80;1.00;;;14.70;1.00;;;;;;4996416;28;20397;-82
2023/04/14 12:04:50;;;;;;;1.90;1.05;;;15.10;1.00;;;;;;4999029;28;20422;-82
2023/04/14 12:07:18;;;;;;;3.90;1.70;;;16.50;1.00;;;;;;5018415;28;20390;-83
2023/04/14 12:09:45;;;;;;;2.30;1.10;;;17.50;1.00;;;;;;5002851;28;20390;-82
2023/04/14 12:12:13;;;;;;;3.28;1.15;;;17.50;1.00;;;;;;4996496;28;20397;-83
2023/04/14 12:14:44;;;;;;;2.22;1.20;;;16.80;1.00;;;;;;4995560;28;20386;-83
2023/04/14 12:17:11;;;;;;;3.00;1.20;;;17.20;1.00;;;;;;4995185;28;20394;-81
2023/04/14 12:19:37;;;;;;;1.40;1.08;;;14.80;1.00;;;;;;4996104;28;20411;-82
2023/04/14 12:22:04;;;;;;;2.10;0.82;;;14.40;1.00;;;;;;5010370;28;20394;-81
2023/04/14 12:24:38;;;;;;;2.30;1.10;;;14.40;1.00;;;;;;4995652;28;20395;-81
2023/04/14 12:27:05;;;;;;;1.60;0.90;;;14.10;1.00;;;;;;5010831;28;20394;-82
2023/04/14 12:29:37;;;;;;;2.45;0.90;;;15.30;1.00;;;;;;4996100;28;20425;-82
2023/04/14 12:32:13;;;;;;;3.65;1.20;;;15.70;1.00;;;;;;5011031;28;20889;-82
2023/04/14 12:34:39;;;;;;;4.72;1.10;;;16.90;1.00;;;;;;4994445;28;20874;-81
2023/04/14 12:37:08;;;;;;;1.63;0.80;;;17.40;1.00;;;;;;4989335;28;20461;-83
2023/04/14 12:39:59;;;;;;;2.00;1.00;;;16.20;1.00;;;;;;4987314;28;20394;-83
2023/04/14 12:42:41;;;;;;;1.92;0.90;;;16.40;1.00;;;;;;4984753;28;20388;-83
2023/04/14 12:45:08;;;;;;;2.75;1.30;;;16.80;1.00;;;;;;4977786;28;20391;-83
2023/04/14 12:47:34;;;;;;;2.15;1.10;;;16.60;1.00;;;;;;4980830;28;20399;-81
2023/04/14 12:50:21;;;;;;;2.03;1.02;;;15.30;1.00;;;;;;4978574;28;20424;-82
2023/04/14 12:52:46;;;;;;;3.97;1.20;;;14.80;1.00;;;;;;4970434;28;20385;-82
2023/04/14 12:55:20;;;;;;;2.30;0.80;;;14.20;1.00;;;;;;4991733;28;20419;-83
2023/04/14 12:57:45;;;;;;;3.70;1.40;;;14.80;1.00;;;;;;4983765;28;20392;-82
2023/04/14 13:00:12;;;;;;;2.00;1.00;;;14.40;1.00;;;;;;4996470;28;20402;-83